Time;durP1;ratioP1;P1;durP2;ratioP2;P2;SDS_P1;SDS_P2;PMS_P1;PMS_P2;Temp;Humidity;BMP_temperature;BMP_pressure;BME280_temperature;BME280_humidity;BME280_pressure;Samples;Min_cycle;Max_cycle;Signal;HPM_P1;HPM_P2
2022/03/27 00:00:29;;;;;;;0.60;0.60;;;;;;;;;;4978892;28;20034;-88
2022/03/27 00:02:55;;;;;;;0.52;0.52;;;;;;;;;;4978585;28;20526;-88
2022/03/27 00:05:21;;;;;;;0.43;0.43;;;;;;;;;;4980087;28;20039;-89
2022/03/27 00:07:47;;;;;;;1.77;0.60;;;;;;;;;;4980334;28;20053;-88
2022/03/27 00:10:14;;;;;;;0.10;0.10;;;;;;;;;;4982005;28;20034;-88
2022/03/27 00:12:40;;;;;;;0.73;0.50;;;;;;;;;;4979542;28;20029;-88
2022/03/27 00:15:09;;;;;;;0.32;0.22;;;;;;;;;;4979811;28;20034;-87
2022/03/27 00:17:35;;;;;;;1.23;0.40;;;;;;;;;;4979868;28;20098;-87
2022/03/27 00:20:02;;;;;;;0.27;0.27;;;;;;;;;;4981267;28;20062;-88
2022/03/27 00:22:28;;;;;;;0.50;0.50;;;;;;;;;;4985429;28;22858;-87
2022/03/27 00:24:55;;;;;;;0.13;0.13;;;;;;;;;;4986577;28;20110;-88
2022/03/27 00:27:21;;;;;;;0.35;0.35;;;;;;;;;;4983504;28;20507;-88
2022/03/27 00:29:47;;;;;;;0.28;0.28;;;;;;;;;;4978966;28;20049;-88
2022/03/27 00:32:13;;;;;;;0.20;0.20;;;;;;;;;;4983180;28;20034;-88
2022/03/27 00:34:39;;;;;;;0.25;0.25;;;;;;;;;;4986023;28;20044;-88
2022/03/27 00:37:05;;;;;;;0.23;0.23;;;;;;;;;;4986559;28;20074;-88
2022/03/27 00:39:31;;;;;;;1.55;0.88;;;;;;;;;;4984951;28;20072;-88
2022/03/27 00:41:57;;;;;;;0.28;0.28;;;;;;;;;;4983658;28;20035;-88
2022/03/27 00:44:23;;;;;;;0.32;0.32;;;;;;;;;;4983612;28;20042;-88
2022/03/27 00:46:49;;;;;;;0.17;0.17;;;;;;;;;;4985480;28;20451;-88
2022/03/27 00:49:16;;;;;;;0.80;0.80;;;;;;;;;;4985534;28;20034;-87
2022/03/27 00:51:42;;;;;;;0.70;0.70;;;;;;;;;;4984077;28;20050;-88
2022/03/27 00:54:08;;;;;;;0.10;0.10;;;;;;;;;;4984174;28;20056;-87
2022/03/27 00:56:34;;;;;;;0.20;0.20;;;;;;;;;;4983232;28;20498;-87
2022/03/27 00:59:01;;;;;;;0.38;0.38;;;;;;;;;;4983058;28;20577;-88
2022/03/27 01:01:35;;;;;;;0.10;0.10;;;;;;;;;;4983496;28;20029;-88
2022/03/27 01:04:01;;;;;;;0.32;0.32;;;;;;;;;;4982780;28;20030;-87
2022/03/27 01:06:30;;;;;;;0.20;0.20;;;;;;;;;;4984820;28;20022;-88
2022/03/27 01:11:41;;;;;;;0.40;0.40;;;;;;;;;;4983020;28;20088;-87
2022/03/27 01:14:09;;;;;;;0.17;0.17;;;;;;;;;;4984985;28;20122;-87
2022/03/27 01:16:40;;;;;;;0.47;0.47;;;;;;;;;;4985245;28;20060;-89
2022/03/27 01:19:07;;;;;;;0.13;0.13;;;;;;;;;;4985984;28;20454;-88
2022/03/27 01:21:35;;;;;;;0.10;0.10;;;;;;;;;;4982938;28;20061;-89
2022/03/27 01:24:02;;;;;;;2.17;1.30;;;;;;;;;;4984739;28;20096;-88
2022/03/27 01:26:29;;;;;;;0.10;0.10;;;;;;;;;;4978375;28;20043;-88
2022/03/27 01:28:55;;;;;;;;;;;;;;;;;;4983314;28;20933;-88
2022/03/27 01:31:21;;;;;;;0.10;0.10;;;;;;;;;;4983938;28;19909;-88
2022/03/27 01:33:47;;;;;;;1.00;0.98;;;;;;;;;;4985635;28;20041;-89
2022/03/27 01:36:20;;;;;;;0.15;0.15;;;;;;;;;;4983366;28;20034;-87
2022/03/27 01:38:46;;;;;;;0.40;0.40;;;;;;;;;;4984090;28;20093;-87
2022/03/27 01:41:12;;;;;;;1.05;0.57;;;;;;;;;;4984082;28;20027;-88
2022/03/27 01:43:38;;;;;;;0.65;0.65;;;;;;;;;;4983825;28;20542;-88
2022/03/27 01:46:04;;;;;;;0.22;0.22;;;;;;;;;;4985473;28;20035;-88
2022/03/27 01:48:30;;;;;;;0.22;0.22;;;;;;;;;;4985780;28;20089;-88
2022/03/27 01:51:02;;;;;;;0.32;0.32;;;;;;;;;;4978044;28;20042;-89
2022/03/27 01:53:28;;;;;;;0.25;0.25;;;;;;;;;;4982089;28;20026;-89
2022/03/27 01:55:54;;;;;;;1.88;0.93;;;;;;;;;;4980091;28;20109;-89
2022/03/27 01:58:21;;;;;;;0.10;0.10;;;;;;;;;;4982863;28;20026;-88
2022/03/27 02:00:47;;;;;;;0.15;0.15;;;;;;;;;;4983902;28;20054;-88
2022/03/27 02:03:13;;;;;;;0.15;0.15;;;;;;;;;;4984038;28;20061;-87
2022/03/27 02:05:39;;;;;;;1.93;0.60;;;;;;;;;;4981724;28;20065;-88
2022/03/27 02:08:05;;;;;;;0.20;0.20;;;;;;;;;;4982154;28;20711;-87
2022/03/27 02:10:31;;;;;;;0.00;0.00;;;;;;;;;;4982168;28;20038;-87
2022/03/27 02:12:57;;;;;;;0.55;0.55;;;;;;;;;;4970045;28;20023;-88
2022/03/27 02:15:24;;;;;;;1.20;1.00;;;;;;;;;;4983528;28;20037;-88
2022/03/27 02:17:50;;;;;;;;;;;;;;;;;;4982412;28;20781;-88
2022/03/27 02:20:16;;;;;;;0.10;0.10;;;;;;;;;;4981113;28;19916;-87
2022/03/27 02:22:42;;;;;;;0.10;0.10;;;;;;;;;;4980535;28;20027;-88
2022/03/27 02:25:09;;;;;;;0.52;0.52;;;;;;;;;;4981159;28;20052;-88
2022/03/27 02:27:35;;;;;;;0.73;0.73;;;;;;;;;;4983042;28;20181;-87
2022/03/27 02:30:01;;;;;;;1.40;1.30;;;;;;;;;;4982775;28;20507;-88
2022/03/27 02:32:27;;;;;;;0.17;0.17;;;;;;;;;;4984116;28;20497;-88
2022/03/27 02:34:53;;;;;;;0.55;0.55;;;;;;;;;;4981181;28;20080;-88
2022/03/27 02:37:19;;;;;;;0.20;0.20;;;;;;;;;;4981009;28;20033;-88
2022/03/27 02:39:46;;;;;;;0.55;0.52;;;;;;;;;;4983081;28;20144;-88
2022/03/27 02:42:12;;;;;;;0.43;0.40;;;;;;;;;;4984280;28;20129;-88
2022/03/27 02:44:38;;;;;;;0.25;0.25;;;;;;;;;;4980733;28;20289;-88
2022/03/27 02:47:04;;;;;;;0.90;0.60;;;;;;;;;;4981526;28;20029;-89
2022/03/27 02:49:31;;;;;;;0.30;0.30;;;;;;;;;;4982136;28;20106;-87
2022/03/27 02:51:57;;;;;;;0.25;0.25;;;;;;;;;;4984713;28;20034;-89
2022/03/27 02:54:24;;;;;;;0.43;0.20;;;;;;;;;;4982938;28;20030;-88
2022/03/27 02:56:50;;;;;;;0.30;0.30;;;;;;;;;;4980875;28;20090;-88
2022/03/27 02:59:16;;;;;;;0.60;0.60;;;;;;;;;;4981716;28;20030;-88
2022/03/27 03:01:42;;;;;;;0.10;0.10;;;;;;;;;;4980932;28;20779;-86
2022/03/27 03:04:08;;;;;;;0.20;0.20;;;;;;;;;;4978095;28;20057;-87
2022/03/27 03:06:34;;;;;;;0.20;0.20;;;;;;;;;;4983192;28;20522;-87
2022/03/27 03:09:01;;;;;;;0.10;0.10;;;;;;;;;;4980284;28;20038;-88
2022/03/27 03:11:27;;;;;;;0.30;0.30;;;;;;;;;;4980705;28;20023;-88
2022/03/27 03:13:53;;;;;;;0.10;0.10;;;;;;;;;;4982250;28;20810;-87
2022/03/27 03:16:20;;;;;;;0.43;0.43;;;;;;;;;;4982985;28;20030;-88
2022/03/27 03:18:46;;;;;;;1.50;1.05;;;;;;;;;;4981954;28;20076;-88
2022/03/27 03:21:12;;;;;;;1.02;1.00;;;;;;;;;;4980771;28;20058;-87
2022/03/27 03:23:38;;;;;;;0.30;0.30;;;;;;;;;;4980636;28;20030;-87
2022/03/27 03:26:05;;;;;;;1.55;1.45;;;;;;;;;;4982765;28;20022;-88
2022/03/27 03:28:31;;;;;;;0.40;0.40;;;;;;;;;;4966126;28;20423;-88
2022/03/27 03:30:57;;;;;;;0.20;0.20;;;;;;;;;;4984400;28;20034;-89
2022/03/27 03:33:25;;;;;;;0.20;0.20;;;;;;;;;;4981687;28;20057;-88
2022/03/27 03:35:51;;;;;;;0.43;0.43;;;;;;;;;;4982508;28;20045;-88
2022/03/27 03:38:17;;;;;;;0.10;0.10;;;;;;;;;;4981085;28;20018;-90
2022/03/27 03:40:43;;;;;;;0.22;0.22;;;;;;;;;;4980755;28;20042;-88
2022/03/27 03:43:13;;;;;;;0.52;0.52;;;;;;;;;;4983150;28;20033;-87
2022/03/27 03:45:39;;;;;;;0.30;0.30;;;;;;;;;;4981480;28;20045;-88
2022/03/27 03:48:05;;;;;;;0.20;0.20;;;;;;;;;;4982880;28;20022;-88
2022/03/27 03:50:35;;;;;;;0.35;0.35;;;;;;;;;;4982067;28;20052;-89
2022/03/27 03:53:01;;;;;;;0.57;0.57;;;;;;;;;;4980373;28;20377;-87
2022/03/27 03:55:28;;;;;;;0.20;0.20;;;;;;;;;;4981934;28;20138;-88
2022/03/27 03:57:56;;;;;;;0.28;0.28;;;;;;;;;;4987049;28;20103;-88
2022/03/27 04:00:23;;;;;;;0.85;0.85;;;;;;;;;;4983887;28;20042;-88
2022/03/27 04:02:49;;;;;;;0.43;0.43;;;;;;;;;;4984486;28;20030;-88
2022/03/27 04:05:15;;;;;;;0.57;0.57;;;;;;;;;;4985519;28;20574;-87
2022/03/27 04:07:41;;;;;;;0.17;0.17;;;;;;;;;;4984405;28;20054;-87
2022/03/27 04:10:07;;;;;;;0.73;0.73;;;;;;;;;;4987095;28;20173;-87
2022/03/27 04:12:33;;;;;;;0.45;0.45;;;;;;;;;;4987234;28;20160;-88
2022/03/27 04:14:59;;;;;;;0.35;0.35;;;;;;;;;;4983504;28;20626;-87
2022/03/27 04:17:25;;;;;;;1.50;1.13;;;;;;;;;;4984035;28;20030;-88
2022/03/27 04:19:51;;;;;;;0.25;0.25;;;;;;;;;;4984070;28;20037;-87
2022/03/27 04:22:17;;;;;;;0.60;0.60;;;;;;;;;;4985761;28;20613;-88
2022/03/27 04:24:44;;;;;;;0.25;0.25;;;;;;;;;;4983680;28;20030;-88
2022/03/27 04:27:10;;;;;;;0.50;0.30;;;;;;;;;;4985249;28;20066;-88
2022/03/27 04:29:36;;;;;;;0.40;0.40;;;;;;;;;;4982964;28;20045;-88
2022/03/27 04:32:02;;;;;;;1.00;1.00;;;;;;;;;;4985580;28;20042;-87
2022/03/27 04:34:28;;;;;;;0.20;0.20;;;;;;;;;;4984361;28;20030;-86
2022/03/27 04:36:54;;;;;;;0.20;0.20;;;;;;;;;;4985945;28;20065;-87
2022/03/27 04:39:22;;;;;;;2.75;0.93;;;;;;;;;;4983339;28;20499;-86
2022/03/27 04:41:48;;;;;;;0.77;0.77;;;;;;;;;;4984356;28;20046;-87
2022/03/27 04:44:14;;;;;;;0.10;0.10;;;;;;;;;;4984468;28;20108;-86
2022/03/27 04:46:41;;;;;;;0.97;0.90;;;;;;;;;;4983229;28;20041;-87
2022/03/27 04:49:06;;;;;;;0.30;0.30;;;;;;;;;;4985808;28;20809;-86
2022/03/27 04:51:33;;;;;;;1.52;0.95;;;;;;;;;;4982490;28;20029;-86
2022/03/27 04:53:59;;;;;;;1.63;0.97;;;;;;;;;;4982584;28;20129;-86
2022/03/27 04:56:25;;;;;;;0.15;0.15;;;;;;;;;;4982451;28;20043;-86
2022/03/27 04:58:51;;;;;;;0.10;0.10;;;;;;;;;;4982664;28;20088;-86
2022/03/27 05:01:17;;;;;;;0.43;0.43;;;;;;;;;;4985088;28;20407;-87
2022/03/27 05:03:43;;;;;;;0.68;0.63;;;;;;;;;;4979779;28;20140;-87
2022/03/27 05:06:09;;;;;;;0.60;0.60;;;;;;;;;;4981578;28;20040;-88
2022/03/27 05:08:36;;;;;;;0.73;0.70;;;;;;;;;;4983707;28;20293;-87
2022/03/27 05:11:02;;;;;;;0.45;0.45;;;;;;;;;;4982911;28;20038;-87
2022/03/27 05:13:29;;;;;;;0.63;0.63;;;;;;;;;;4981472;28;20115;-87
2022/03/27 05:15:55;;;;;;;0.10;0.10;;;;;;;;;;4985406;28;20042;-86
2022/03/27 05:18:21;;;;;;;0.30;0.30;;;;;;;;;;4982610;28;20042;-87
2022/03/27 05:20:47;;;;;;;0.10;0.10;;;;;;;;;;4978516;28;20823;-87
2022/03/27 05:23:13;;;;;;;1.00;1.00;;;;;;;;;;4982420;28;20030;-89
2022/03/27 05:25:45;;;;;;;0.40;0.40;;;;;;;;;;4983877;28;20116;-88
2022/03/27 05:28:12;;;;;;;0.25;0.25;;;;;;;;;;4984523;28;20085;-87
2022/03/27 05:30:38;;;;;;;0.63;0.38;;;;;;;;;;4981864;28;20034;-88
2022/03/27 05:33:05;;;;;;;0.52;0.40;;;;;;;;;;4982378;28;20042;-87
2022/03/27 05:35:31;;;;;;;1.75;1.17;;;;;;;;;;4981845;28;20042;-86
2022/03/27 05:37:58;;;;;;;0.28;0.28;;;;;;;;;;4982125;28;20037;-88
2022/03/27 05:40:24;;;;;;;;;;;;;;;;;;4983894;28;20038;-88
2022/03/27 05:42:51;;;;;;;0.90;0.68;;;;;;;;;;4984030;28;19917;-87
2022/03/27 05:45:17;;;;;;;0.40;0.40;;;;;;;;;;4983494;28;20181;-89
2022/03/27 05:47:43;;;;;;;0.22;0.22;;;;;;;;;;4982270;28;20042;-88
2022/03/27 05:50:11;;;;;;;0.45;0.45;;;;;;;;;;4977530;28;20503;-86
2022/03/27 05:52:37;;;;;;;0.43;0.43;;;;;;;;;;4980514;28;20061;-87
2022/03/27 05:55:04;;;;;;;0.20;0.20;;;;;;;;;;4984337;28;20197;-86
2022/03/27 05:57:30;;;;;;;2.83;0.68;;;;;;;;;;4983446;28;20085;-86
2022/03/27 05:59:56;;;;;;;0.57;0.57;;;;;;;;;;4976893;28;20045;-86
2022/03/27 06:02:22;;;;;;;1.17;0.75;;;;;;;;;;4981751;28;20129;-85
2022/03/27 06:04:48;;;;;;;1.08;0.98;;;;;;;;;;4981611;28;20138;-86
2022/03/27 06:07:14;;;;;;;0.73;0.73;;;;;;;;;;4975914;28;20034;-85
2022/03/27 06:09:40;;;;;;;31.55;2.42;;;;;;;;;;4983665;28;20050;-86
2022/03/27 06:12:07;;;;;;;0.45;0.45;;;;;;;;;;4974174;28;20035;-86
2022/03/27 06:14:33;;;;;;;0.30;0.30;;;;;;;;;;4977657;28;20495;-87
2022/03/27 06:16:59;;;;;;;0.20;0.20;;;;;;;;;;4971987;28;20069;-85
2022/03/27 06:19:26;;;;;;;1.50;1.40;;;;;;;;;;4971968;28;20026;-85
2022/03/27 06:21:52;;;;;;;;;;;;;;;;;;4970252;28;20569;-86
2022/03/27 06:24:18;;;;;;;0.20;0.20;;;;;;;;;;4979173;28;19945;-85
2022/03/27 06:26:44;;;;;;;0.45;0.45;;;;;;;;;;4975610;28;20077;-86
2022/03/27 06:29:10;;;;;;;0.13;0.13;;;;;;;;;;4974616;28;20038;-85
2022/03/27 06:31:38;;;;;;;0.70;0.70;;;;;;;;;;4965987;28;20893;-87
2022/03/27 06:34:04;;;;;;;0.20;0.20;;;;;;;;;;4975272;28;20061;-85
2022/03/27 06:36:30;;;;;;;0.38;0.38;;;;;;;;;;4968920;28;20652;-83
2022/03/27 06:38:56;;;;;;;5.90;2.10;;;;;;;;;;4975402;28;20053;-84
2022/03/27 06:41:22;;;;;;;0.38;0.38;;;;;;;;;;4973391;28;20034;-84
2022/03/27 06:43:48;;;;;;;0.52;0.52;;;;;;;;;;4968837;28;20056;-85
2022/03/27 06:46:17;;;;;;;0.22;0.22;;;;;;;;;;4978626;28;20026;-86
2022/03/27 06:48:46;;;;;;;0.43;0.43;;;;;;;;;;4970009;28;20043;-84
2022/03/27 06:51:13;;;;;;;1.30;0.85;;;;;;;;;;4974480;28;20042;-88
2022/03/27 06:53:39;;;;;;;0.30;0.30;;;;;;;;;;4975431;28;20073;-86
2022/03/27 06:56:05;;;;;;;1.65;0.88;;;;;;;;;;4971448;28;20090;-88
2022/03/27 06:58:31;;;;;;;0.13;0.13;;;;;;;;;;4976996;28;20503;-83
2022/03/27 07:03:42;;;;;;;0.40;0.40;;;;;;;;;;4974056;28;20122;-82
2022/03/27 07:06:08;;;;;;;0.85;0.85;;;;;;;;;;4972996;28;20406;-80
2022/03/27 07:08:34;;;;;;;0.32;0.32;;;;;;;;;;4977112;28;20042;-76
2022/03/27 07:11:00;;;;;;;0.20;0.20;;;;;;;;;;4973238;28;20120;-77
2022/03/27 07:13:27;;;;;;;2.80;1.07;;;;;;;;;;4972470;28;20034;-76
2022/03/27 07:15:53;;;;;;;2.73;0.63;;;;;;;;;;4977489;28;20273;-77
2022/03/27 07:18:20;;;;;;;0.28;0.28;;;;;;;;;;4977768;28;20030;-77
2022/03/27 07:20:46;;;;;;;;;;;;;;;;;;4972713;28;20113;-76
2022/03/27 07:23:13;;;;;;;1.13;1.02;;;;;;;;;;4973517;28;20306;-76
2022/03/27 07:25:40;;;;;;;0.47;0.47;;;;;;;;;;4970995;28;20129;-78
2022/03/27 07:28:08;;;;;;;0.90;0.82;;;;;;;;;;4979963;28;20027;-78
2022/03/27 07:30:34;;;;;;;0.22;0.22;;;;;;;;;;4980381;28;20042;-77
2022/03/27 07:33:00;;;;;;;0.77;0.77;;;;;;;;;;4982799;28;20026;-77
2022/03/27 07:35:27;;;;;;;0.55;0.55;;;;;;;;;;4979975;28;20042;-77
2022/03/27 07:37:54;;;;;;;0.50;0.47;;;;;;;;;;4982540;28;20026;-77
2022/03/27 07:40:20;;;;;;;0.55;0.55;;;;;;;;;;4984160;28;20023;-77
2022/03/27 07:42:49;;;;;;;0.30;0.30;;;;;;;;;;4984894;28;20046;-77
2022/03/27 07:45:18;;;;;;;0.55;0.28;;;;;;;;;;4980333;28;20521;-77
2022/03/27 07:47:44;;;;;;;0.25;0.25;;;;;;;;;;4983979;28;20034;-77
2022/03/27 07:50:11;;;;;;;9.30;0.80;;;;;;;;;;4982294;28;20038;-77
2022/03/27 07:52:38;;;;;;;1.70;1.08;;;;;;;;;;4982808;28;20038;-76
2022/03/27 07:55:05;;;;;;;0.22;0.22;;;;;;;;;;4983502;28;20038;-78
2022/03/27 07:57:31;;;;;;;0.35;0.35;;;;;;;;;;4977070;28;20575;-78
2022/03/27 07:59:57;;;;;;;0.80;0.60;;;;;;;;;;4970979;28;20122;-78
2022/03/27 08:02:23;;;;;;;0.40;0.40;;;;;;;;;;4974594;28;20467;-77
2022/03/27 08:04:49;;;;;;;0.30;0.30;;;;;;;;;;4977338;28;20291;-77
2022/03/27 08:07:15;;;;;;;0.30;0.30;;;;;;;;;;4983572;28;20040;-79
2022/03/27 08:09:42;;;;;;;0.60;0.60;;;;;;;;;;4986095;28;20519;-77
2022/03/27 08:12:09;;;;;;;1.00;1.00;;;;;;;;;;4983520;28;20041;-76
2022/03/27 08:14:38;;;;;;;0.35;0.35;;;;;;;;;;4984068;28;20041;-79
2022/03/27 08:17:04;;;;;;;1.80;1.50;;;;;;;;;;4982495;28;20495;-78
2022/03/27 08:19:31;;;;;;;0.10;0.10;;;;;;;;;;4982520;28;20046;-77
2022/03/27 08:21:57;;;;;;;0.70;0.70;;;;;;;;;;4975513;28;20026;-77
2022/03/27 08:24:23;;;;;;;0.68;0.68;;;;;;;;;;4973553;28;20046;-77
2022/03/27 08:26:55;;;;;;;1.67;1.58;;;;;;;;;;4973768;28;20030;-77
2022/03/27 08:29:23;;;;;;;0.40;0.40;;;;;;;;;;4973895;28;20045;-77
2022/03/27 08:31:50;;;;;;;3.10;1.08;;;;;;;;;;4971961;28;20113;-77
2022/03/27 08:34:17;;;;;;;0.65;0.32;;;;;;;;;;4973582;28;20077;-77
2022/03/27 08:36:43;;;;;;;0.82;0.82;;;;;;;;;;4970224;28;20739;-76
2022/03/27 08:39:10;;;;;;;0.90;0.70;;;;;;;;;;4968997;28;20039;-77
2022/03/27 08:41:36;;;;;;;0.45;0.45;;;;;;;;;;4977832;28;20066;-75
2022/03/27 08:44:02;;;;;;;0.38;0.38;;;;;;;;;;4974916;28;20033;-77
2022/03/27 08:46:29;;;;;;;0.60;0.30;;;;;;;;;;4981837;28;20034;-76
2022/03/27 08:49:02;;;;;;;1.70;0.40;;;;;;;;;;4981254;28;20034;-77
2022/03/27 08:51:28;;;;;;;1.98;0.88;;;;;;;;;;4980067;28;20117;-76
2022/03/27 08:54:00;;;;;;;1.20;1.10;;;;;;;;;;4983526;28;20030;-77
2022/03/27 08:56:27;;;;;;;6.35;0.68;;;;;;;;;;4980890;28;20050;-76
2022/03/27 08:58:54;;;;;;;0.17;0.17;;;;;;;;;;4975804;28;20030;-77
2022/03/27 09:01:20;;;;;;;0.32;0.32;;;;;;;;;;4982019;28;20033;-76
2022/03/27 09:03:46;;;;;;;0.60;0.35;;;;;;;;;;4983848;28;20038;-76
2022/03/27 09:06:12;;;;;;;0.45;0.45;;;;;;;;;;4979075;28;20034;-79
2022/03/27 09:08:39;;;;;;;1.88;1.17;;;;;;;;;;4981875;28;20124;-76
2022/03/27 09:11:06;;;;;;;0.55;0.55;;;;;;;;;;4981603;28;20034;-76
2022/03/27 09:13:32;;;;;;;9.88;1.00;;;;;;;;;;4980213;28;20117;-75
2022/03/27 09:16:07;;;;;;;2.65;2.03;;;;;;;;;;4977234;28;20035;-76
2022/03/27 09:18:52;;;;;;;0.35;0.35;;;;;;;;;;4977385;28;20054;-76
2022/03/27 09:21:18;;;;;;;0.63;0.30;;;;;;;;;;4975820;28;20030;-76
2022/03/27 09:23:45;;;;;;;2.28;1.08;;;;;;;;;;4975931;28;20032;-76
2022/03/27 09:26:16;;;;;;;2.20;0.80;;;;;;;;;;4978912;28;20046;-76
2022/03/27 09:28:44;;;;;;;1.70;0.70;;;;;;;;;;4979933;28;20038;-76
2022/03/27 09:31:17;;;;;;;0.85;0.80;;;;;;;;;;4975978;28;20050;-77
2022/03/27 09:33:46;;;;;;;0.03;0.03;;;;;;;;;;4979485;28;20056;-80
2022/03/27 09:36:16;;;;;;;0.10;0.10;;;;;;;;;;4979518;28;20035;-76
2022/03/27 09:38:56;;;;;;;0.40;0.28;;;;;;;;;;4976523;28;20034;-77
2022/03/27 09:41:43;;;;;;;2.10;1.17;;;;;;;;;;4975410;28;20590;-77
2022/03/27 09:44:09;;;;;;;;;;;;;;;;;;4975435;28;20027;-76
2022/03/27 09:46:47;;;;;;;10.10;1.35;;;;;;;;;;4976153;28;19967;-77
2022/03/27 09:49:14;;;;;;;0.20;0.20;;;;;;;;;;4967503;28;20047;-78
2022/03/27 09:51:55;;;;;;;0.32;0.32;;;;;;;;;;4973740;28;20048;-78
2022/03/27 09:54:21;;;;;;;3.65;1.48;;;;;;;;;;4978275;28;20042;-77
2022/03/27 09:56:48;;;;;;;2.05;1.83;;;;;;;;;;4980865;28;20101;-78
2022/03/27 09:59:25;;;;;;;1.08;0.95;;;;;;;;;;4977777;28;20034;-77
2022/03/27 10:01:51;;;;;;;0.90;0.90;;;;;;;;;;4971164;28;20047;-77
2022/03/27 10:04:17;;;;;;;0.57;0.55;;;;;;;;;;4972103;28;20029;-77
2022/03/27 10:06:45;;;;;;;0.73;0.73;;;;;;;;;;4973442;28;20419;-77
2022/03/27 10:09:12;;;;;;;1.67;0.70;;;;;;;;;;4981050;28;20049;-78
2022/03/27 10:11:39;;;;;;;0.43;0.43;;;;;;;;;;4977786;28;20038;-76
2022/03/27 10:14:06;;;;;;;0.63;0.50;;;;;;;;;;4971668;28;20027;-78
2022/03/27 10:16:34;;;;;;;0.95;0.90;;;;;;;;;;4979203;28;20026;-77
2022/03/27 10:19:04;;;;;;;0.50;0.40;;;;;;;;;;4974290;28;20113;-78
2022/03/27 10:21:32;;;;;;;0.38;0.38;;;;;;;;;;4973196;28;20168;-77
2022/03/27 10:24:06;;;;;;;0.40;0.30;;;;;;;;;;4976667;28;20027;-77
2022/03/27 10:26:33;;;;;;;0.50;0.50;;;;;;;;;;4977152;28;20027;-78
2022/03/27 10:28:59;;;;;;;4.15;1.30;;;;;;;;;;4971304;28;20030;-78
2022/03/27 10:31:25;;;;;;;;;;;;;;;;;;4977548;28;20451;-80
2022/03/27 10:33:53;;;;;;;0.93;0.75;;;;;;;;;;4976938;28;19928;-79
2022/03/27 10:36:22;;;;;;;7.45;1.30;;;;;;;;;;4974602;28;20041;-79
2022/03/27 10:38:58;;;;;;;1.70;1.40;;;;;;;;;;4975410;28;20030;-80
2022/03/27 10:41:36;;;;;;;2.28;1.60;;;;;;;;;;4978528;28;20034;-81
2022/03/27 10:44:24;;;;;;;0.68;0.20;;;;;;;;;;4979436;28;20030;-87
2022/03/27 10:47:09;;;;;;;0.30;0.30;;;;;;;;;;4972409;28;20053;-85
2022/03/27 10:49:35;;;;;;;0.40;0.40;;;;;;;;;;4981814;28;20035;-86
2022/03/27 10:52:05;;;;;;;2.05;1.85;;;;;;;;;;4973307;28;20097;-86
2022/03/27 10:54:31;;;;;;;12.77;2.25;;;;;;;;;;4974193;28;20097;-84
2022/03/27 10:56:58;;;;;;;0.43;0.38;;;;;;;;;;4973424;28;20051;-83
2022/03/27 10:59:26;;;;;;;0.20;0.20;;;;;;;;;;4966029;28;20023;-84
2022/03/27 11:01:58;;;;;;;0.20;0.20;;;;;;;;;;4967718;28;20448;-83
2022/03/27 11:04:44;;;;;;;1.27;1.17;;;;;;;;;;4970994;28;20061;-83
2022/03/27 11:07:16;;;;;;;11.50;2.80;;;;;;;;;;4967001;28;20038;-86
2022/03/27 11:09:46;;;;;;;0.10;0.10;;;;;;;;;;4973017;28;20057;-80
2022/03/27 11:12:24;;;;;;;0.10;0.10;;;;;;;;;;4968093;28;20049;-82
2022/03/27 11:14:53;;;;;;;0.45;0.30;;;;;;;;;;4978578;28;20041;-86
2022/03/27 11:17:40;;;;;;;5.15;2.03;;;;;;;;;;4976888;28;20088;-84
2022/03/27 11:20:08;;;;;;;7.88;1.15;;;;;;;;;;4975547;28;20030;-84
2022/03/27 11:22:51;;;;;;;0.82;0.82;;;;;;;;;;4975658;28;20041;-84
2022/03/27 11:25:36;;;;;;;0.30;0.30;;;;;;;;;;4973026;28;20419;-84
2022/03/27 11:28:22;;;;;;;1.35;0.35;;;;;;;;;;4980029;28;20033;-84
2022/03/27 11:30:48;;;;;;;;;;;;;;;;;;4980113;28;20046;-85
2022/03/27 11:33:18;;;;;;;0.28;0.28;;;;;;;;;;4974664;28;19918;-82
2022/03/27 11:36:03;;;;;;;2.65;1.00;;;;;;;;;;4978803;28;20514;-84
2022/03/27 11:38:30;;;;;;;1.35;0.85;;;;;;;;;;4978501;28;20041;-86
2022/03/27 11:40:57;;;;;;;2.88;1.83;;;;;;;;;;4977706;28;20117;-84
2022/03/27 11:43:23;;;;;;;;;;;;;;;;;;4980636;28;20030;-85
2022/03/27 11:45:49;;;;;;;0.70;0.70;;;;;;;;;;4978624;28;19921;-85
2022/03/27 11:48:16;;;;;;;;;;;;;;;;;;4972060;28;20539;-83
2022/03/27 11:50:42;;;;;;;0.30;0.30;;;;;;;;;;4972398;28;20033;-83
2022/03/27 11:53:08;;;;;;;15.93;2.00;;;;;;;;;;4975216;28;20601;-84
2022/03/27 11:55:35;;;;;;;1.80;1.13;;;;;;;;;;4978984;28;20054;-84
2022/03/27 11:58:03;;;;;;;1.23;1.05;;;;;;;;;;4971535;28;20070;-84
2022/03/27 12:00:37;;;;;;;1.00;0.63;;;;;;;;;;4976298;28;20043;-83
2022/03/27 12:03:14;;;;;;;0.90;0.82;;;;;;;;;;4976638;28;20460;-84
2022/03/27 12:05:40;;;;;;;2.15;1.77;;;;;;;;;;4976333;28;20094;-83
2022/03/27 12:08:07;;;;;;;2.53;0.80;;;;;;;;;;4973508;28;20026;-82
2022/03/27 12:10:44;;;;;;;2.28;1.38;;;;;;;;;;4969529;28;20058;-83
2022/03/27 12:13:11;;;;;;;0.98;0.88;;;;;;;;;;4977548;28;20029;-84
2022/03/27 12:15:42;;;;;;;2.75;1.75;;;;;;;;;;4979570;28;20634;-83
2022/03/27 12:18:08;;;;;;;1.30;0.93;;;;;;;;;;4986356;28;20522;-85
2022/03/27 12:20:50;;;;;;;9.35;0.50;;;;;;;;;;4982444;28;20023;-84
2022/03/27 12:23:26;;;;;;;1.40;0.82;;;;;;;;;;4982342;28;20110;-84
2022/03/27 12:26:02;;;;;;;0.17;0.17;;;;;;;;;;4977899;28;20042;-85
2022/03/27 12:31:22;;;;;;;45.20;3.00;;;;;;;;;;4975109;28;20152;-83
2022/03/27 12:33:49;;;;;;;0.17;0.17;;;;;;;;;;4984120;28;20692;-84
2022/03/27 12:36:16;;;;;;;;;;;;;;;;;;4982007;28;20737;-84
2022/03/27 12:38:42;;;;;;;6.35;1.00;;;;;;;;;;4977980;28;19964;-84
2022/03/27 12:41:10;;;;;;;0.10;0.10;;;;;;;;;;4979103;28;20026;-85
2022/03/27 12:43:37;;;;;;;1.75;0.20;;;;;;;;;;4980529;28;20470;-84
2022/03/27 12:46:23;;;;;;;0.52;0.52;;;;;;;;;;4981573;28;20062;-85
2022/03/27 12:48:58;;;;;;;0.43;0.43;;;;;;;;;;4977797;28;20124;-82
2022/03/27 12:51:25;;;;;;;0.37;0.37;;;;;;;;;;4975835;28;20062;-85
2022/03/27 12:54:01;;;;;;;8.93;1.98;;;;;;;;;;4972804;28;20081;-83
2022/03/27 12:56:27;;;;;;;0.20;0.20;;;;;;;;;;4980035;28;20089;-83
2022/03/27 12:58:53;;;;;;;0.30;0.30;;;;;;;;;;4981123;28;20475;-83
2022/03/27 13:01:20;;;;;;;2.45;1.27;;;;;;;;;;4982917;28;20049;-83
2022/03/27 13:03:46;;;;;;;;;;;;;;;;;;4980073;28;20058;-84
2022/03/27 13:06:12;;;;;;;0.65;0.65;;;;;;;;;;4982648;28;19956;-85
2022/03/27 13:08:40;;;;;;;1.05;0.95;;;;;;;;;;4978996;28;20050;-82
2022/03/27 13:11:06;;;;;;;1.55;1.08;;;;;;;;;;4972419;28;20042;-84
2022/03/27 13:13:52;;;;;;;0.73;0.73;;;;;;;;;;4981050;28;20039;-84
2022/03/27 13:16:21;;;;;;;17.08;2.10;;;;;;;;;;4975288;28;20332;-83
2022/03/27 13:19:00;;;;;;;1.85;1.35;;;;;;;;;;4980136;28;20034;-85
2022/03/27 13:21:30;;;;;;;0.43;0.43;;;;;;;;;;4977513;28;20078;-84
2022/03/27 13:23:57;;;;;;;0.15;0.15;;;;;;;;;;4978219;28;20143;-83
2022/03/27 13:26:23;;;;;;;1.55;1.05;;;;;;;;;;4972064;28;20041;-85
2022/03/27 13:28:49;;;;;;;0.75;0.57;;;;;;;;;;4978369;28;20038;-84
2022/03/27 13:31:16;;;;;;;0.00;0.00;;;;;;;;;;4981338;28;20034;-84
2022/03/27 13:33:42;;;;;;;1.42;1.10;;;;;;;;;;4979507;28;20038;-84
2022/03/27 13:36:08;;;;;;;0.65;0.65;;;;;;;;;;4978633;28;20041;-86
2022/03/27 13:38:34;;;;;;;0.77;0.77;;;;;;;;;;4981110;28;20030;-85
2022/03/27 13:43:46;;;;;;;15.00;2.85;;;;;;;;;;4978788;28;20100;-85
2022/03/27 13:46:12;;;;;;;4.43;1.63;;;;;;;;;;4980945;28;20034;-85
2022/03/27 13:48:38;;;;;;;4.88;1.95;;;;;;;;;;4982213;28;20052;-84
2022/03/27 13:51:04;;;;;;;0.63;0.53;;;;;;;;;;4979731;28;20113;-84
2022/03/27 13:53:30;;;;;;;1.48;0.77;;;;;;;;;;4979742;28;20967;-84
2022/03/27 13:55:56;;;;;;;0.43;0.40;;;;;;;;;;4972806;28;20555;-84
2022/03/27 13:58:22;;;;;;;1.85;1.13;;;;;;;;;;4977405;28;20034;-85
2022/03/27 14:00:48;;;;;;;0.10;0.10;;;;;;;;;;4977439;28;20026;-84
2022/03/27 14:03:15;;;;;;;1.65;0.68;;;;;;;;;;4980191;28;20038;-85
2022/03/27 14:05:41;;;;;;;;;;;;;;;;;;4981779;28;20026;-86
2022/03/27 14:08:07;;;;;;;0.95;0.90;;;;;;;;;;4980964;28;20001;-88
2022/03/27 14:10:33;;;;;;;2.22;1.42;;;;;;;;;;4978622;28;20043;-85
2022/03/27 14:12:59;;;;;;;0.25;0.20;;;;;;;;;;4983590;28;20019;-85
2022/03/27 14:15:25;;;;;;;1.08;0.30;;;;;;;;;;4980496;28;20035;-84
2022/03/27 14:17:51;;;;;;;0.65;0.52;;;;;;;;;;4980315;28;20022;-84
2022/03/27 14:20:18;;;;;;;15.43;1.55;;;;;;;;;;4978885;28;20085;-84
2022/03/27 14:22:48;;;;;;;0.40;0.40;;;;;;;;;;4980280;28;20030;-83
2022/03/27 14:25:15;;;;;;;0.30;0.30;;;;;;;;;;4981614;28;20030;-84
2022/03/27 14:27:42;;;;;;;0.35;0.35;;;;;;;;;;4981914;28;20026;-84
2022/03/27 14:30:11;;;;;;;1.92;1.65;;;;;;;;;;4980719;28;20046;-88
2022/03/27 14:32:37;;;;;;;1.65;0.75;;;;;;;;;;4982394;28;20038;-82
2022/03/27 14:35:05;;;;;;;0.88;0.65;;;;;;;;;;4979717;28;20038;-83
2022/03/27 14:37:31;;;;;;;2.53;1.08;;;;;;;;;;4980119;28;20065;-83
2022/03/27 14:39:59;;;;;;;0.25;0.25;;;;;;;;;;4982552;28;20141;-84
2022/03/27 14:42:25;;;;;;;1.20;0.93;;;;;;;;;;4979862;28;20034;-88
2022/03/27 14:44:51;;;;;;;0.10;0.10;;;;;;;;;;4980448;28;20530;-83
2022/03/27 14:47:18;;;;;;;0.30;0.30;;;;;;;;;;4979698;28;20058;-83
2022/03/27 14:49:45;;;;;;;5.68;2.78;;;;;;;;;;4979988;28;20046;-85
2022/03/27 14:52:11;;;;;;;0.13;0.13;;;;;;;;;;4981141;28;20060;-83
2022/03/27 14:57:22;;;;;;;0.30;0.10;;;;;;;;;;4971742;28;20049;-83
2022/03/27 14:59:48;;;;;;;9.52;1.63;;;;;;;;;;4976821;28;20030;-83
2022/03/27 15:02:17;;;;;;;0.13;0.13;;;;;;;;;;4979944;28;20034;-82